• Join FlightAware (Why Join?)
  • Login
  • US Flag 
03:47AM EST


 

Airport Tracker/Info


-or-


 

Live Flight TrackerFlight Track Log ✈ N724CM ✈ 20-May-2013 ✈ KGSP - KBHM

Flight Track Log - Related Links

Times and Time Zones

All times are in EDT time to prevent confusion due to time zone crossing. See the N724CM flight status page for this flight to view local times or setup timezone preferences in your user account.

Time Position Orientation Groundspeed Altitude Reporting Facility
EDT Latitude Longitude Course Direction KTS MPH feet Rate Location/Type
10:43AM 34.8333 -82.5309 270° West  Level FlightAware Approximate
10:43AM 34.8753 -82.4461 259° West 142 163 6,800  Level Atlanta Center
10:44AM 34.8278 -82.5838 259° West  Level FlightAware Approximate
10:44AM 34.8614 -82.4972 252° West 150 173 7,500  Level Atlanta Center
10:45AM 34.8191 -82.6364 259° West  Level FlightAware Approximate
10:45AM 34.8475 -82.5406 249° West 150 173 8,100  Level Atlanta Center
10:46AM 34.8103 -82.6889 259° West  Level FlightAware Approximate
10:46AM 34.8333 -82.5889 250° West 150 173 8,100  Level Atlanta Center
10:47AM 34.8016 -82.7415 259° West  Level FlightAware Approximate
10:47AM 34.8194 -82.6472 254° West 158 182 8,100  Level Atlanta Center
10:48AM 34.7928 -82.7940 259° West  Level FlightAware Approximate
10:48AM 34.8094 -82.6981 257° West 163 188 8,100  Level Atlanta Center
10:49AM 34.7997 -82.7589 259° West 170 196 8,100  Level Atlanta Center
10:50AM 34.7919 -82.8119 260° West 170 196 8,100  Level Atlanta Center
10:51AM 34.7800 -82.8628 254° West 163 188 8,200  Climbing Atlanta Center
10:52AM 34.7722 -82.9186 260° West 163 188 8,200  Level Atlanta Center
10:53AM 34.7622 -82.9667 256° West 163 188 8,200  Level Atlanta Center
10:54AM 34.7522 -83.0275 259° West 170 196 8,200  Level Atlanta Center
10:55AM 34.7422 -83.0783 257° West 170 196 8,200  Level Atlanta Center
10:56AM 34.7322 -83.1339 258° West 164 189 8,200  Level Atlanta Center
10:57AM 34.7264 -83.1819 262° West 159 183 8,200 -60 Level Atlanta Center
10:58AM 34.7142 -83.2403 256° West 166 191 8,100  Descending Atlanta Center
10:59AM 34.7042 -83.2933 257° West 167 192 8,200  Climbing Atlanta Center
11:00AM 34.6961 -83.3439 259° West 159 183 8,200  Level Atlanta Center
11:01AM 34.6858 -83.3997 257° West 159 183 8,200  Level Atlanta Center
11:02AM 34.6736 -83.4528 254° West 164 189 8,200  Level Atlanta Center
11:03AM 34.6633 -83.5111 258° West 164 189 8,200  Level Atlanta Center
11:04AM 34.6553 -83.5589 258° West 164 189 8,200 -60 Level Atlanta Center
11:05AM 34.6492 -83.6094 262° West 159 183 8,100  Descending Atlanta Center
11:06AM 34.6389 -83.6625 257° West 159 183 8,200  Climbing Atlanta Center
11:07AM 34.6308 -83.7131 259° West 159 183 8,100 -60 Descending Atlanta Center
11:08AM 34.6206 -83.7661 257° West 159 183 8,100  Level Atlanta Center
11:09AM 34.6100 -83.8242 258° West 159 183 8,200  Climbing Atlanta Center
11:10AM 34.5997 -83.8747 256° West 164 189 8,200  Level Atlanta Center
11:11AM 34.5914 -83.9278 259° West 163 188 8,200 -60 Level Atlanta Center
11:12AM 34.5811 -83.9808 257° West 158 182 8,100  Descending Atlanta Center
11:13AM 34.5706 -84.0311 256° West 158 182 8,200  Climbing Atlanta Center
11:14AM 34.5622 -84.0817 259° West 158 182 8,200 -60 Level Atlanta Center
11:15AM 34.5519 -84.1347 257° West 163 188 8,100 -60 Descending Atlanta Center
11:16AM 34.5433 -84.1850 258° West 158 182 8,100  Level Atlanta Center
11:17AM 34.5331 -84.2331 255° West 158 182 8,200  Climbing Atlanta Center
11:18AM 34.5244 -84.2833 258° West 158 182 8,200 -60 Level Atlanta Center
11:19AM 34.5161 -84.3311 258° West 158 182 8,100  Descending Atlanta Center
11:20AM 34.5075 -84.3792 258° West 158 182 8,200  Climbing Atlanta Center
11:21AM 34.4950 -84.4294 253° West 158 182 8,200  Level Atlanta Center
11:22AM 34.4781 -84.4747 246° West 158 182 8,200  Level Atlanta Center
11:23AM 34.4592 -84.5200 243° Southwest 158 182 8,200  Level Atlanta Center
11:24AM 34.4422 -84.5678 247° West 158 182 8,200 -60 Level Atlanta Center
11:25AM 34.4233 -84.6156 244° Southwest 158 182 8,100  Descending Atlanta Center
11:26AM 34.4042 -84.6606 243° Southwest 158 182 8,200  Climbing Atlanta Center
11:27AM 34.3853 -84.7108 246° West 153 176 8,200  Level Atlanta Center
11:28AM 34.3683 -84.7561 246° West 153 176 8,200 -60 Level Atlanta Center
11:29AM 34.3511 -84.8036 246° West 153 176 8,100 -60 Descending Atlanta Center
11:30AM 34.3322 -84.8514 244° Southwest 153 176 8,100  Level Atlanta Center
11:31AM 34.3131 -84.8939 241° Southwest 153 176 8,200  Climbing Atlanta Center
11:32AM 34.2961 -84.9439 248° West 153 176 8,200  Level Atlanta Center
11:33AM 34.2769 -84.9892 243° Southwest 153 176 8,200  Level Atlanta Center
11:34AM 34.2597 -85.0367 246° West 153 176 8,200  Level Atlanta Center
11:35AM 34.2386 -85.0817 240° Southwest 153 176 8,200 -120 Level Atlanta Center
11:36AM 34.2217 -85.1217 243° Southwest 153 176 8,000  Descending Atlanta Center
11:37AM 34.2044 -85.1767 249° West 170 196 8,200 60 Climbing Atlanta Center
11:38AM 34.1850 -85.2242 244° Southwest 165 190 8,200  Level Atlanta Center
11:39AM 34.1681 -85.2664 244° Southwest 160 184 8,200 -60 Level Atlanta Center
11:40AM 34.1489 -85.3139 244° Southwest 160 184 8,100  Descending Atlanta Center
11:41AM 34.1294 -85.3614 244° Southwest 153 176 8,200 -120 Climbing Atlanta Center
11:42AM 34.1081 -85.4111 243° Southwest 160 184 7,900 -360 Descending Atlanta Center
11:43AM 34.0908 -85.4611 247° West 160 184 7,500 -420 Descending Atlanta Center
11:44AM 34.0694 -85.5108 243° Southwest 167 192 7,100 -360 Descending Atlanta Center
11:45AM 34.0500 -85.5606 245° Southwest 172 198 6,800 -360 Descending Atlanta Center
11:46AM 34.0283 -85.6178 245° Southwest 172 198 6,400 -360 Descending Atlanta Center
11:47AM 34.0067 -85.6700 243° Southwest 172 198 6,100 -180 Descending Atlanta Center
11:48AM 33.9894 -85.7150 245° Southwest 166 191 6,100  Level Atlanta Center
11:49AM 33.9700 -85.7622 244° Southwest 166 191 6,100  Level Atlanta Center
11:50AM 33.9506 -85.8042 241° Southwest 154 177 6,100  Level Atlanta Center
11:51AM 33.9333 -85.8439 242° Southwest 152 175 6,100  Level Atlanta Center
11:51AM 33.9333 -85.8464 270° West 155 178 6,100  Level Atlanta Center
11:52AM 33.9161 -85.8886 244° Southwest 153 176 6,100  Level Atlanta Center
11:53AM 33.8967 -85.9358 244° Southwest 152 175 6,100  Level Atlanta Center
11:54AM 33.8747 -85.9878 243° Southwest 151 174 6,100 -120 Level Atlanta Center
11:55AM 33.8617 -86.0375 252° West 155 178 5,900 -300 Descending Atlanta Center
11:56AM 33.8419 -86.0872 244° Southwest 169 194 5,500 -420 Descending Atlanta Center
11:57AM 33.8244 -86.1367 247° West 165 190 5,100 -240 Descending Atlanta Center
11:58AM 33.8089 -86.1839 248° West 150 173 5,100  Level Atlanta Center
11:59AM 33.7914 -86.2283 245° Southwest 143 165 5,100  Level Atlanta Center
12:00PM 33.7761 -86.2756 249° West 145 167 5,100  Level Atlanta Center
12:01PM 33.7606 -86.3250 249° West 145 167 5,100 -300 Level Atlanta Center
12:02PM 33.7450 -86.3672 246° West 151 174 4,600 -600 Descending Atlanta Center
12:03PM 33.7297 -86.4117 248° West 157 181 4,100 -300 Descending Atlanta Center
12:04PM 33.7142 -86.4611 249° West 139 160 4,100  Level Atlanta Center
12:05PM 33.6967 -86.5006 242° Southwest 136 157 4,100 -60 Level Atlanta Center
12:06PM 33.6853 -86.5403 251° West 143 165 4,000 -180 Descending Atlanta Center
12:07PM 33.6636 -86.5797 237° Southwest 147 169 3,800 -600 Descending Atlanta Center
12:08PM 33.6378 -86.6264 236° Southwest 167 192 2,800 -780 Descending Atlanta Center
12:09PM 33.6139 -86.6681 235° Southwest 154 177 2,300 -600 Descending Atlanta Center
12:10PM 33.5964 -86.7022 238° Southwest 109 125 1,700 -600 Descending Atlanta Center
12:11PM 33.5769 -86.7342 234° Southwest 110 127 1,100 -600 Descending Atlanta Center
12:13PM 33.5639 -86.7523 231° Southwest  Level Estimated
12:20PM 33.5639 -86.7523 231° Southwest  Level Estimated